Terminal Aerodrome Forecast
Issued by NWS Charleston, WV

Current Version | Previous Version | Graphics & Text | Print | Product List | Glossary Off
Versions: 1 2 3 4 5 6 7 8 9 10 11 12 13 14 15 16 17 18 19 20 21 22 23 24 25 26 27 28

000
FTUS41 KRLX 011700 RRA
TAFHTS
TAF
KHTS 011744Z 0118/0218 10006KT P6SM VCTS BKN035CB
     FM012200 13006KT P6SM BKN080
     FM020100 15004KT P6SM BKN100
     FM020400 00000KT 5SM BR BKN110
     FM020600 00000KT 2SM BR BKN100
     FM021200 00000KT 3SM BR BKN100
     FM021300 00000KT P6SM BKN090
     FM021700 35004KT P6SM VCTS BKN035CB=

USA.gov is the U.S. government's official web portal to all federal, state and local government web resources and services.